地図

経路データ

SID SEASON NUMBER BASIN SUBBASIN NAME ISO_TIME NATURE LAT LON WMO_WIND WMO_PRES WMO_AGENCY TRACK_TYPE DIST2LAND LANDFALL IFLAG USA_AGENCY USA_ATCF_ID USA_LAT USA_LON USA_RECORD USA_STATUS USA_WIND USA_PRES USA_SSHS USA_R34_NE USA_R34_SE USA_R34_SW USA_R34_NW USA_R50_NE USA_R50_SE USA_R50_SW USA_R50_NW USA_R64_NE USA_R64_SE USA_R64_SW USA_R64_NW USA_POCI USA_ROCI USA_RMW USA_EYE TOKYO_LAT TOKYO_LON TOKYO_GRADE TOKYO_WIND TOKYO_PRES TOKYO_R50_DIR TOKYO_R50_LONG TOKYO_R50_SHORT TOKYO_R30_DIR TOKYO_R30_LONG TOKYO_R30_SHORT TOKYO_LAND CMA_LAT CMA_LON CMA_CAT CMA_WIND CMA_PRES HKO_LAT HKO_LON HKO_CAT HKO_WIND HKO_PRES NEWDELHI_LAT NEWDELHI_LON NEWDELHI_GRADE NEWDELHI_WIND NEWDELHI_PRES NEWDELHI_CI NEWDELHI_DP NEWDELHI_POCI REUNION_LAT REUNION_LON REUNION_TYPE REUNION_WIND REUNION_PRES REUNION_TNUM REUNION_CI REUNION_RMW REUNION_R34_NE REUNION_R34_SE REUNION_R34_SW REUNION_R34_NW REUNION_R50_NE REUNION_R50_SE REUNION_R50_SW REUNION_R50_NW REUNION_R64_NE REUNION_R64_SE REUNION_R64_SW REUNION_R64_NW BOM_LAT BOM_LON BOM_TYPE BOM_WIND BOM_PRES BOM_TNUM BOM_CI BOM_RMW BOM_R34_NE BOM_R34_SE BOM_R34_SW BOM_R34_NW BOM_R50_NE BOM_R50_SE BOM_R50_SW BOM_R50_NW BOM_R64_NE BOM_R64_SE BOM_R64_SW BOM_R64_NW BOM_ROCI BOM_POCI BOM_EYE BOM_POS_METHOD BOM_PRES_METHOD NADI_LAT NADI_LON NADI_CAT NADI_WIND NADI_PRES WELLINGTON_LAT WELLINGTON_LON WELLINGTON_WIND WELLINGTON_PRES DS824_LAT DS824_LON DS824_STAGE DS824_WIND DS824_PRES TD9636_LAT TD9636_LON TD9636_STAGE TD9636_WIND TD9636_PRES TD9635_LAT TD9635_LON TD9635_WIND TD9635_PRES TD9635_ROCI NEUMANN_LAT NEUMANN_LON NEUMANN_CLASS NEUMANN_WIND NEUMANN_PRES MLC_LAT MLC_LON MLC_CLASS MLC_WIND MLC_PRES USA_GUST BOM_GUST BOM_GUST_PER REUNION_GUST REUNION_GUST_PER USA_SEAHGT USA_SEARAD_NE USA_SEARAD_SE USA_SEARAD_SW USA_SEARAD_NW STORM_SPEED STORM_DIR
1911021S16074 1911 6 SI MM NOT_NAMED 1911-01-21 06:00:00 NR -16.0000 73.7000 reunion main 1746 1746 _____O________ -1 -16.0000 73.7000 99 9.90000 0 0
1911021S16074 1911 6 SI MM NOT_NAMED 1911-01-21 09:00:00 NR -16.0016 73.7076 main 1746 1746 _____P________ -1 -16.0016 73.7076 99 0 0
1911021S16074 1911 6 SI MM NOT_NAMED 1911-01-21 12:00:00 NR -16.0079 73.7061 main 1746 1746 _____P________ -1 -16.0079 73.7061 99 0 0
1911021S16074 1911 6 SI MM NOT_NAMED 1911-01-21 15:00:00 NR -16.0234 73.6865 main 1746 1733 _____P________ -1 -16.0234 73.6865 99 1 236
1911021S16074 1911 6 SI MM NOT_NAMED 1911-01-21 18:00:00 NR -16.0527 73.6399 main 1733 1733 _____P________ -1 -16.0527 73.6399 99 1 239
1911021S16074 1911 6 SI MM NOT_NAMED 1911-01-21 21:00:00 NR -16.1005 73.5570 main 1733 1709 _____P________ -1 -16.1005 73.5570 99 2 240
1911021S16074 1911 6 SI MM NOT_NAMED 1911-01-22 00:00:00 NR -16.1713 73.4289 main 1709 1695 _____P________ -1 -16.1713 73.4289 99 3 240
1911021S16074 1911 6 SI MM NOT_NAMED 1911-01-22 03:00:00 NR -16.2696 73.2463 main 1685 1661 _____P________ -1 -16.2696 73.2463 99 5 241
1911021S16074 1911 6 SI MM NOT_NAMED 1911-01-22 06:00:00 NR -16.4000 73.0000 reunion main 1661 1624 _____O________ -1 -16.4000 73.0000 99 9.90000 6 241
1911021S16074 1911 6 SI MM NOT_NAMED 1911-01-22 09:00:00 NR -16.5650 72.6843 main 1624 1580 _____P________ -1 -16.5650 72.6843 99 8 242
1911021S16074 1911 6 SI MM NOT_NAMED 1911-01-22 12:00:00 NR -16.7598 72.3082 main 1577 1530 _____P________ -1 -16.7598 72.3082 99 9 242
1911021S16074 1911 6 SI MM NOT_NAMED 1911-01-22 15:00:00 NR -16.9781 71.8843 main 1530 1483 _____P________ -1 -16.9781 71.8843 99 10 242
1911021S16074 1911 6 SI MM NOT_NAMED 1911-01-22 18:00:00 NR -17.2134 71.4255 main 1472 1426 _____P________ -1 -17.2134 71.4255 99 10 242
1911021S16074 1911 6 SI MM NOT_NAMED 1911-01-22 21:00:00 NR -17.4594 70.9446 main 1412 1366 _____P________ -1 -17.4594 70.9446 99 11 242
1911021S16074 1911 6 SI MM NOT_NAMED 1911-01-23 00:00:00 NR -17.7099 70.4547 main 1366 1309 _____P________ -1 -17.7099 70.4547 99 11 242
1911021S16074 1911 6 SI MM NOT_NAMED 1911-01-23 03:00:00 NR -17.9587 69.9687 main 1306 1250 _____P________ -1 -17.9587 69.9687 99 10 242
1911021S16074 1911 6 SI MM NOT_NAMED 1911-01-23 06:00:00 NR -18.2000 69.5000 reunion main 1250 1204 _____O________ -1 -18.2000 69.5000 99 9.90000 9 241
1911021S16074 1911 6 SI MM NOT_NAMED 1911-01-23 09:00:00 NR -18.4038 69.1212 main 1204 1168 _____P________ -1 -18.4038 69.1212 99 8 240
1911021S16074 1911 6 SI MM NOT_NAMED 1911-01-23 12:00:00 NR -18.6032 68.7558 main 1168 1123 _____P________ -1 -18.6032 68.7558 99 8 240
1911021S16074 1911 6 SI MM NOT_NAMED 1911-01-23 15:00:00 NR -18.7999 68.3976 main 1123 1088 _____P________ -1 -18.7999 68.3976 99 8 240
1911021S16074 1911 6 SI MM NOT_NAMED 1911-01-23 18:00:00 NR -18.9956 68.0407 main 1077 1043 _____P________ -1 -18.9956 68.0407 99 8 240
1911021S16074 1911 6 SI MM NOT_NAMED 1911-01-23 21:00:00 NR -19.1919 67.6787 main 1043 998 _____P________ -1 -19.1919 67.6787 99 8 240
1911021S16074 1911 6 SI MM NOT_NAMED 1911-01-24 00:00:00 NR -19.3904 67.3054 main 998 954 _____P________ -1 -19.3904 67.3054 99 8 241
1911021S16074 1911 6 SI MM NOT_NAMED 1911-01-24 03:00:00 NR -19.5926 66.9146 main 954 910 _____P________ -1 -19.5926 66.9146 99 9 242
1911021S16074 1911 6 SI MM NOT_NAMED 1911-01-24 06:00:00 NR -19.8000 66.5000 reunion main 910 866 _____O________ -1 -19.8000 66.5000 99 9.90000 9 243
1911021S16074 1911 6 SI MM NOT_NAMED 1911-01-24 09:00:00 NR -20.0159 66.0365 main 856 813 _____P________ -1 -20.0159 66.0365 99 10 244
1911021S16074 1911 6 SI MM NOT_NAMED 1911-01-24 12:00:00 NR -20.2361 65.5496 main 803 760 _____P________ -1 -20.2361 65.5496 99 10 245
1911021S16074 1911 6 SI MM NOT_NAMED 1911-01-24 15:00:00 NR -20.4596 65.0439 main 750 709 _____P________ -1 -20.4596 65.0439 99 11 245
1911021S16074 1911 6 SI MM NOT_NAMED 1911-01-24 18:00:00 NR -20.6856 64.5242 main 699 648 _____P________ -1 -20.6856 64.5242 99 11 245
1911021S16074 1911 6 SI MM NOT_NAMED 1911-01-24 21:00:00 NR -20.9133 63.9951 main 648 599 _____P________ -1 -20.9133 63.9951 99 11 245
1911021S16074 1911 6 SI MM NOT_NAMED 1911-01-25 00:00:00 NR -21.1420 63.4616 main 599 551 _____P________ -1 -21.1420 63.4616 99 11 245
1911021S16074 1911 6 SI MM NOT_NAMED 1911-01-25 03:00:00 NR -21.3711 62.9282 main 543 499 _____P________ -1 -21.3711 62.9282 99 11 245
1911021S16074 1911 6 SI MM NOT_NAMED 1911-01-25 06:00:00 NR -21.6000 62.4000 reunion main 499 457 _____O________ -1 -21.6000 62.4000 99 9.90000 11 245
1911021S16074 1911 6 SI MM NOT_NAMED 1911-01-25 09:00:00 NR -21.8157 61.9031 main 457 418 _____P________ -1 -21.8157 61.9031 99 10 245
1911021S16074 1911 6 SI MM NOT_NAMED 1911-01-25 12:00:00 NR -22.0309 61.4097 main 418 381 _____P________ -1 -22.0309 61.4097 99 10 245
1911021S16074 1911 6 SI MM NOT_NAMED 1911-01-25 15:00:00 NR -22.2471 60.9176 main 381 359 _____P________ -1 -22.2471 60.9176 99 10 244
1911021S16074 1911 6 SI MM NOT_NAMED 1911-01-25 18:00:00 NR -22.4659 60.4248 main 357 334 _____P________ -1 -22.4659 60.4248 99 10 244
1911021S16074 1911 6 SI MM NOT_NAMED 1911-01-25 21:00:00 NR -22.6891 59.9289 main 334 323 _____P________ -1 -22.6891 59.9289 99 10 244
1911021S16074 1911 6 SI MM NOT_NAMED 1911-01-26 00:00:00 NR -22.9181 59.4277 main 320 314 _____P________ -1 -22.9181 59.4277 99 10 243
1911021S16074 1911 6 SI MM NOT_NAMED 1911-01-26 03:00:00 NR -23.1546 58.9189 main 326 319 _____P________ -1 -23.1546 58.9189 99 11 243
1911021S16074 1911 6 SI MM NOT_NAMED 1911-01-26 06:00:00 NR -23.4000 58.4000 reunion main 332 330 _____O________ -1 -23.4000 58.4000 99 9.90000 11 244
1911021S16074 1911 6 SI MM NOT_NAMED 1911-01-26 09:00:00 NR -23.6345 57.8640 main 335 324 _____P________ -1 -23.6345 57.8640 99 11 244
1911021S16074 1911 6 SI MM NOT_NAMED 1911-01-26 12:00:00 NR -23.8750 57.3182 main 328 319 _____P________ -1 -23.8750 57.3182 99 11 244
1911021S16074 1911 6 SI MM NOT_NAMED 1911-01-26 15:00:00 NR -24.1244 56.7639 main 325 322 _____P________ -1 -24.1244 56.7639 99 11 243
1911021S16074 1911 6 SI MM NOT_NAMED 1911-01-26 18:00:00 NR -24.3852 56.2020 main 340 339 _____P________ -1 -24.3852 56.2020 99 12 243
1911021S16074 1911 6 SI MM NOT_NAMED 1911-01-26 21:00:00 NR -24.6604 55.6338 main 368 368 _____P________ -1 -24.6604 55.6338 99 12 241
1911021S16074 1911 6 SI MM NOT_NAMED 1911-01-27 00:00:00 NR -24.9527 55.0601 main 405 405 _____P________ -1 -24.9527 55.0601 99 12 240
1911021S16074 1911 6 SI MM NOT_NAMED 1911-01-27 03:00:00 NR -25.2650 54.4819 main 450 450 _____P________ -1 -25.2650 54.4819 99 12 238
1911021S16074 1911 6 SI MM NOT_NAMED 1911-01-27 06:00:00 NR -25.6000 53.9000 reunion main 500 500 _____O________ -1 -25.6000 53.9000 99 9.90000 14 236
1911021S16074 1911 6 SI MM NOT_NAMED 1911-01-27 09:00:00 NR -26.0173 53.2391 main 567 567 _____P________ -1 -26.0173 53.2391 99 15 234
1911021S16074 1911 6 SI MM NOT_NAMED 1911-01-27 12:00:00 NR -26.4646 52.5612 main 575 524 _____P________ -1 -26.4646 52.5612 99 15 233
1911021S16074 1911 6 SI MM NOT_NAMED 1911-01-27 15:00:00 NR -26.9259 51.8826 main 524 491 _____P________ -1 -26.9259 51.8826 99 15 232
1911021S16074 1911 6 SI MM NOT_NAMED 1911-01-27 18:00:00 NR -27.3854 51.2204 main 488 468 _____P________ -1 -27.3854 51.2204 99 15 232
1911021S16074 1911 6 SI MM NOT_NAMED 1911-01-27 21:00:00 NR -27.8277 50.5924 main 468 456 _____P________ -1 -27.8277 50.5924 99 14 231
1911021S16074 1911 6 SI MM NOT_NAMED 1911-01-28 00:00:00 NR -28.2375 50.0169 main 456 455 _____P________ -1 -28.2375 50.0169 99 12 231
1911021S16074 1911 6 SI MM NOT_NAMED 1911-01-28 03:00:00 NR -28.5998 49.5130 main 462 462 _____P________ -1 -28.5998 49.5130 99 10 231
1911021S16074 1911 6 SI MM NOT_NAMED 1911-01-28 06:00:00 NR -28.9000 49.1000 reunion main 471 466 _____O________ -1 -28.9000 49.1000 99 9.90000 8 230
1911021S16074 1911 6 SI MM NOT_NAMED 1911-01-28 09:00:00 NR -29.1277 48.7920 main 478 478 _____P________ -1 -29.1277 48.7920 99 6 229
1911021S16074 1911 6 SI MM NOT_NAMED 1911-01-28 12:00:00 NR -29.2888 48.5815 main 491 487 _____P________ -1 -29.2888 48.5815 99 4 228
1911021S16074 1911 6 SI MM NOT_NAMED 1911-01-28 15:00:00 NR -29.3934 48.4552 main 498 494 _____P________ -1 -29.3934 48.4552 99 2 224
1911021S16074 1911 6 SI MM NOT_NAMED 1911-01-28 18:00:00 NR -29.4510 48.3994 main 505 505 _____P________ -1 -29.4510 48.3994 99 1 209
1911021S16074 1911 6 SI MM NOT_NAMED 1911-01-28 21:00:00 NR -29.4711 48.4001 main 505 505 _____P________ -1 -29.4711 48.4001 99 0 108
1911021S16074 1911 6 SI MM NOT_NAMED 1911-01-29 00:00:00 NR -29.4630 48.4432 main 505 498 _____P________ -1 -29.4630 48.4432 99 1 71
1911021S16074 1911 6 SI MM NOT_NAMED 1911-01-29 03:00:00 NR -29.4362 48.5145 main 498 498 _____P________ -1 -29.4362 48.5145 99 2 66
1911021S16074 1911 6 SI MM NOT_NAMED 1911-01-29 06:00:00 NR -29.4000 48.6000 reunion main 501 _____O________ -1 -29.4000 48.6000 99 9.90000 2 66

IBTrACS Databaseについて

本データベースは、米国NOAAが公開する1842年以降の世界の熱帯低気圧のベストトラックデータアーカイブInternational Best Track Archive for Climate Stewardship (IBTrACS)を、ウェブで閲覧しやすい形式に変換したものです。

最終更新日:2021-12-06